createdAt,value
2022-11-25T00:03:49.912Z,43.48
2022-11-25T00:08:59.982Z,43.57
2022-11-25T00:14:02.353Z,43.82
2022-11-25T00:19:04.182Z,43.89
2022-11-25T00:24:07.526Z,43.46
2022-11-25T00:29:13.202Z,43.63
2022-11-25T00:34:15.646Z,43.36
2022-11-25T00:39:18.783Z,43.71
2022-11-25T00:44:37.754Z,43.30
2022-11-25T00:49:42.957Z,43.83
2022-11-25T00:54:45.130Z,43.40
2022-11-25T00:59:47.433Z,43.41
2022-11-25T01:04:49.204Z,43.39
2022-11-25T01:09:51.374Z,43.43
2022-11-25T01:14:53.081Z,43.59
2022-11-25T01:19:55.030Z,43.47
2022-11-25T01:24:56.890Z,43.46
2022-11-25T01:29:58.836Z,43.69
2022-11-25T01:35:00.702Z,43.38
2022-11-25T01:40:02.580Z,43.48
2022-11-25T01:45:24.619Z,43.43
2022-11-25T01:50:32.344Z,43.39
2022-11-25T01:55:36.901Z,43.40
2022-11-25T02:00:39.368Z,43.76
2022-11-25T02:05:52.976Z,43.48
2022-11-25T02:10:55.859Z,43.71
2022-11-25T02:15:57.833Z,43.57
2022-11-25T02:20:59.862Z,43.81
2022-11-25T02:26:02.378Z,43.62
2022-11-25T02:31:04.673Z,43.59
2022-11-25T02:36:13.086Z,43.65
2022-11-25T02:41:21.018Z,43.53
2022-11-25T02:46:25.247Z,43.93
2022-11-25T02:51:30.127Z,44.01
2022-11-25T02:56:34.606Z,43.75
2022-11-25T03:01:38.541Z,43.95
2022-11-25T03:06:40.887Z,44.05
2022-11-25T03:12:01.539Z,43.90
2022-11-25T03:17:03.500Z,43.85
2022-11-25T03:22:05.627Z,44.18
2022-11-25T03:27:07.625Z,43.73
2022-11-25T03:32:10.011Z,43.74
2022-11-25T03:37:12.149Z,43.76
2022-11-25T03:42:14.431Z,43.82
2022-11-25T03:47:16.549Z,43.62
2022-11-25T03:52:18.995Z,43.86
2022-11-25T03:57:20.879Z,43.51
2022-11-25T04:02:23.386Z,43.70
2022-11-25T04:07:25.407Z,43.63
2022-11-25T04:12:45.784Z,43.71
2022-11-25T04:17:47.778Z,43.90
2022-11-25T04:22:49.757Z,43.73
2022-11-25T04:27:52.139Z,44.01
2022-11-25T04:32:54.156Z,43.91
2022-11-25T04:37:56.242Z,43.63
2022-11-25T04:43:03.473Z,43.87
2022-11-25T04:48:08.173Z,43.76
2022-11-25T04:53:10.206Z,43.60
2022-11-25T04:58:12.339Z,44.08
2022-11-25T05:03:14.532Z,43.67
2022-11-25T05:08:16.358Z,43.86
2022-11-25T05:13:18.257Z,43.60
2022-11-25T05:18:20.226Z,43.86
2022-11-25T05:23:22.118Z,43.71
2022-11-25T05:28:24.036Z,43.96
2022-11-25T05:33:26.236Z,43.67
2022-11-25T05:38:28.668Z,43.83
2022-11-25T05:43:30.700Z,43.82
2022-11-25T05:48:32.628Z,43.60
2022-11-25T05:53:34.539Z,43.61
2022-11-25T05:58:36.301Z,43.89
2022-11-25T06:03:38.897Z,43.78
2022-11-25T06:08:41.041Z,43.57
2022-11-25T06:13:44.963Z,43.98
2022-11-25T06:18:47.085Z,43.78
2022-11-25T06:23:49.089Z,43.86
2022-11-25T06:28:54.166Z,43.89
2022-11-25T06:33:56.106Z,43.47
2022-11-25T06:38:58.031Z,43.90
2022-11-25T06:43:59.844Z,44.00
2022-11-25T06:49:02.026Z,43.59
2022-11-25T06:54:04.332Z,44.06
2022-11-25T06:59:07.152Z,43.75
2022-11-25T07:04:09.335Z,44.02
2022-11-25T07:09:11.254Z,43.94
2022-11-25T07:14:15.543Z,43.93
2022-11-25T07:19:19.028Z,44.27
2022-11-25T07:24:21.003Z,45.09
2022-11-25T07:29:50.413Z,45.16
2022-11-25T07:34:45.285Z,46.19
2022-11-25T07:39:47.514Z,46.15
2022-11-25T07:44:49.873Z,45.89
2022-11-25T07:49:51.956Z,46.23
2022-11-25T07:54:54.049Z,46.50
2022-11-25T07:59:55.892Z,46.41
2022-11-25T08:04:57.776Z,46.42
2022-11-25T08:09:59.853Z,46.40
2022-11-25T08:15:01.806Z,46.24
2022-11-25T08:20:04.067Z,46.58
2022-11-25T08:25:06.438Z,46.29
2022-11-25T08:30:09.250Z,46.57
2022-11-25T08:35:11.266Z,46.26
2022-11-25T08:40:14.112Z,46.41
2022-11-25T08:45:16.518Z,46.37
2022-11-25T08:50:19.003Z,46.45
2022-11-25T08:55:22.216Z,46.31
2022-11-25T09:00:24.440Z,46.13
2022-11-25T09:05:26.560Z,46.38
2022-11-25T09:10:28.913Z,46.26
2022-11-25T09:15:31.817Z,46.41
2022-11-25T09:20:34.466Z,46.33
2022-11-25T09:25:37.511Z,46.34
2022-11-25T09:30:39.516Z,46.20
2022-11-25T09:35:41.480Z,46.39
2022-11-25T09:40:58.272Z,46.08
2022-11-25T09:46:43.723Z,46.20
2022-11-25T09:52:02.851Z,46.54
2022-11-25T09:57:20.744Z,46.13
2022-11-25T10:03:07.062Z,46.21
2022-11-25T10:08:21.096Z,46.28
2022-11-25T10:13:35.148Z,46.14
2022-11-25T10:18:45.834Z,46.35
2022-11-25T10:23:47.908Z,46.25
2022-11-25T10:28:57.275Z,46.27
2022-11-25T10:34:01.235Z,46.17
2022-11-25T10:39:24.589Z,46.35
2022-11-25T10:44:38.157Z,46.15
2022-11-25T10:50:19.264Z,46.09
2022-11-25T10:55:27.204Z,45.98
2022-11-25T11:00:37.828Z,46.38
2022-11-25T11:05:49.380Z,46.26
2022-11-25T11:11:21.005Z,46.23
2022-11-25T11:16:37.043Z,46.41
2022-11-25T11:21:42.015Z,46.13
2022-11-25T11:26:43.994Z,46.13
2022-11-25T11:31:51.605Z,46.42
2022-11-25T11:36:59.857Z,46.13
2022-11-25T11:42:12.802Z,46.26
2022-11-25T11:47:17.909Z,45.89
2022-11-25T11:52:55.621Z,46.44
2022-11-25T11:58:31.759Z,46.07
2022-11-25T12:04:04.446Z,46.23
2022-11-25T12:09:15.913Z,46.33
2022-11-25T12:14:46.050Z,46.43
2022-11-25T12:20:14.365Z,46.14
2022-11-25T12:25:23.736Z,46.15
2022-11-25T12:30:36.512Z,46.37
2022-11-25T12:35:47.084Z,46.40
2022-11-25T12:41:01.804Z,46.07
2022-11-25T12:46:29.891Z,46.54
2022-11-25T12:52:25.722Z,46.43
2022-11-25T12:57:59.843Z,46.35
2022-11-25T13:03:34.463Z,46.43
2022-11-25T13:09:06.039Z,46.44
2022-11-25T13:14:20.416Z,46.46
2022-11-25T13:19:22.601Z,46.63
2022-11-25T13:24:31.712Z,46.28
2022-11-25T13:29:39.928Z,46.20
2022-11-25T13:34:41.947Z,46.46
2022-11-25T13:39:46.522Z,46.56
2022-11-25T13:44:56.866Z,46.22
2022-11-25T13:50:08.365Z,46.38
2022-11-25T13:55:16.347Z,46.65
2022-11-25T14:00:18.082Z,46.81
2022-11-25T14:05:44.694Z,47.21
2022-11-25T14:11:16.118Z,47.14
2022-11-25T14:16:39.382Z,49.41
2022-11-25T14:21:47.347Z,48.86
2022-11-25T14:26:52.320Z,48.60
2022-11-25T14:31:58.810Z,48.48
2022-11-25T14:37:29.239Z,48.51
2022-11-25T14:42:39.662Z,48.31
2022-11-25T14:47:41.376Z,48.19
2022-11-25T14:52:44.335Z,48.10
2022-11-25T14:57:46.940Z,47.99
2022-11-25T15:03:03.448Z,48.09
2022-11-25T15:08:08.707Z,48.32
2022-11-25T15:13:22.784Z,48.31
2022-11-25T15:18:25.639Z,48.20
2022-11-25T15:23:34.921Z,48.20
2022-11-25T15:28:38.056Z,48.34
2022-11-25T15:33:41.217Z,48.31
2022-11-25T15:38:46.345Z,48.19
2022-11-25T15:43:52.286Z,48.21
2022-11-25T15:48:58.936Z,48.36
2022-11-25T15:54:06.004Z,47.74
2022-11-25T15:59:47.988Z,48.27
2022-11-25T16:04:49.777Z,48.00
2022-11-25T16:09:51.951Z,47.90
2022-11-25T16:14:53.618Z,48.04
2022-11-25T16:19:55.379Z,47.91
2022-11-25T16:25:02.103Z,47.98
2022-11-25T16:30:04.451Z,47.43
2022-11-25T16:35:15.364Z,47.31
2022-11-25T16:40:19.022Z,47.71
2022-11-25T16:45:23.398Z,47.94
2022-11-25T16:50:25.369Z,47.60
2022-11-25T16:55:27.244Z,47.85
2022-11-25T17:00:29.309Z,47.95
2022-11-25T17:05:31.111Z,48.25
2022-11-25T17:10:33.071Z,48.84
2022-11-25T17:15:38.211Z,48.78
2022-11-25T17:20:40.343Z,48.51
2022-11-25T17:25:46.886Z,50.44
2022-11-25T17:30:48.953Z,50.30
2022-11-25T17:35:50.759Z,49.99
2022-11-25T17:40:52.986Z,49.92
2022-11-25T17:45:54.970Z,50.17
2022-11-25T17:50:56.813Z,50.02
2022-11-25T17:56:01.927Z,49.21
2022-11-25T18:01:04.022Z,48.98
2022-11-25T18:06:06.805Z,48.80
2022-11-25T18:11:08.628Z,48.15
2022-11-25T18:16:11.443Z,48.00
2022-11-25T18:21:14.531Z,48.17
2022-11-25T18:26:16.416Z,47.84
2022-11-25T18:31:18.450Z,48.17
2022-11-25T18:36:20.264Z,48.31
2022-11-25T18:41:22.288Z,48.05
2022-11-25T18:46:24.261Z,49.44
2022-11-25T18:51:26.233Z,48.87
2022-11-25T18:56:28.249Z,48.68
2022-11-25T19:01:30.515Z,47.60
2022-11-25T19:06:32.667Z,47.64
2022-11-25T19:11:38.071Z,47.79
2022-11-25T19:16:41.485Z,49.52
2022-11-25T19:21:43.649Z,50.73
2022-11-25T19:26:51.555Z,50.18
2022-11-25T19:31:54.722Z,48.80
2022-11-25T19:36:56.549Z,48.75
2022-11-25T19:41:58.263Z,48.38
2022-11-25T19:47:14.967Z,47.98
2022-11-25T19:52:20.705Z,48.16
2022-11-25T19:57:24.341Z,48.10
2022-11-25T20:02:26.992Z,47.80
2022-11-25T20:07:31.266Z,48.08
2022-11-25T20:12:33.254Z,47.38
2022-11-25T20:17:37.819Z,47.60
2022-11-25T20:23:12.771Z,47.50
2022-11-25T20:28:19.622Z,47.39
2022-11-25T20:33:24.732Z,47.91
2022-11-25T20:38:30.220Z,47.70
2022-11-25T20:43:37.038Z,47.24
2022-11-25T20:48:39.166Z,47.30
2022-11-25T20:53:45.208Z,47.33
2022-11-25T20:58:47.605Z,47.12
2022-11-25T21:03:49.986Z,47.48
2022-11-25T21:08:53.187Z,47.21
2022-11-25T21:13:55.500Z,47.05
2022-11-25T21:18:57.342Z,48.58
2022-11-25T21:24:25.849Z,48.74
2022-11-25T21:29:28.583Z,48.05
2022-11-25T21:34:30.426Z,48.00
2022-11-25T21:39:34.094Z,47.76
2022-11-25T21:44:40.897Z,47.28
2022-11-25T21:49:42.917Z,47.70
2022-11-25T21:54:45.503Z,47.46
2022-11-25T21:59:47.762Z,47.65
2022-11-25T22:04:50.681Z,47.42
2022-11-25T22:09:52.553Z,47.17
2022-11-25T22:14:55.176Z,47.65
2022-11-25T22:19:57.588Z,47.41
2022-11-25T22:24:59.457Z,52.03
2022-11-25T22:30:01.220Z,53.11
2022-11-25T22:35:03.204Z,52.17
2022-11-25T22:40:05.577Z,51.92
2022-11-25T22:45:13.998Z,51.84
2022-11-25T22:50:18.497Z,51.05
2022-11-25T22:55:27.794Z,49.87
2022-11-25T23:00:36.045Z,49.97
2022-11-25T23:05:39.881Z,48.86
2022-11-25T23:10:42.615Z,49.20
2022-11-25T23:15:55.597Z,48.57
2022-11-25T23:20:57.846Z,48.28
2022-11-25T23:25:59.784Z,48.18
2022-11-25T23:31:02.720Z,47.92
2022-11-25T23:36:27.356Z,47.79
2022-11-25T23:41:32.225Z,47.88
2022-11-25T23:46:34.959Z,47.55
2022-11-25T23:51:37.402Z,47.24
2022-11-25T23:56:39.297Z,47.32
